createdAt,value
2022-10-09T00:01:22.972Z,99589.69
2022-10-09T00:03:52.865Z,99594.16
2022-10-09T00:06:22.630Z,99590.28
2022-10-09T00:08:52.001Z,99589.91
2022-10-09T00:11:22.678Z,99590.16
2022-10-09T00:13:51.551Z,99583.00
2022-10-09T00:16:22.618Z,99581.41
2022-10-09T00:18:50.436Z,99583.22
2022-10-09T00:21:21.004Z,99583.47
2022-10-09T00:23:49.525Z,99579.22
2022-10-09T00:26:18.420Z,99576.34
2022-10-09T00:28:47.163Z,99573.25
2022-10-09T00:31:15.430Z,99572.91
2022-10-09T00:33:44.631Z,99570.97
2022-10-09T00:36:14.421Z,99569.13
2022-10-09T00:38:42.126Z,99570.84
2022-10-09T00:41:11.586Z,99573.28
2022-10-09T00:43:42.639Z,99577.63
2022-10-09T00:46:20.824Z,99566.56
2022-10-09T00:48:57.840Z,99573.81
2022-10-09T00:51:25.896Z,99574.72
2022-10-09T00:53:53.753Z,99565.63
2022-10-09T00:56:21.771Z,99574.63
2022-10-09T00:58:54.405Z,99566.75
2022-10-09T01:01:25.020Z,99568.59
2022-10-09T01:03:54.088Z,99562.81
2022-10-09T01:06:31.038Z,99565.78
2022-10-09T01:09:03.750Z,99564.97
2022-10-09T01:11:39.732Z,99564.63
2022-10-09T01:14:15.801Z,99559.91
2022-10-09T01:16:51.389Z,99554.78
2022-10-09T01:19:36.547Z,99558.91
2022-10-09T01:22:15.074Z,99552.38
2022-10-09T01:24:48.840Z,99547.47
2022-10-09T01:27:21.954Z,99541.34
2022-10-09T01:29:53.258Z,99540.78
2022-10-09T01:32:24.430Z,99539.75
2022-10-09T01:34:53.610Z,99538.94
2022-10-09T01:37:23.834Z,99536.59
2022-10-09T01:39:53.037Z,99534.16
2022-10-09T01:42:24.060Z,99537.16
2022-10-09T01:44:51.763Z,99539.78
2022-10-09T01:47:21.420Z,99538.03
2022-10-09T01:49:55.833Z,99532.97
2022-10-09T01:52:41.011Z,99537.13
2022-10-09T01:55:26.596Z,99527.94
2022-10-09T01:58:01.346Z,99520.47
2022-10-09T02:00:31.673Z,99525.88
2022-10-09T02:02:59.915Z,99519.34
2022-10-09T02:05:29.970Z,99520.41
2022-10-09T02:07:58.805Z,99516.16
2022-10-09T02:10:27.579Z,99509.81
2022-10-09T02:12:59.058Z,99508.25
2022-10-09T02:15:31.803Z,99506.06
2022-10-09T02:18:06.861Z,99498.13
2022-10-09T02:20:38.282Z,99495.38
2022-10-09T02:23:08.535Z,99497.31
2022-10-09T02:25:36.736Z,99497.66
2022-10-09T02:28:06.715Z,99493.31
2022-10-09T02:30:43.015Z,99496.53
2022-10-09T02:33:10.786Z,99496.72
2022-10-09T02:35:39.349Z,99494.06
2022-10-09T02:38:06.979Z,99499.34
2022-10-09T02:40:34.585Z,99486.44
2022-10-09T02:43:02.243Z,99489.16
2022-10-09T02:45:31.211Z,99481.84
2022-10-09T02:47:58.864Z,99486.13
2022-10-09T02:50:26.500Z,99484.50
2022-10-09T02:52:54.114Z,99492.16
2022-10-09T02:55:21.683Z,99489.06
2022-10-09T02:57:49.386Z,99489.59
2022-10-09T03:00:17.171Z,99482.88
2022-10-09T03:02:46.395Z,99481.16
2022-10-09T03:05:14.286Z,99484.28
2022-10-09T03:07:42.572Z,99481.72
2022-10-09T03:10:10.869Z,99470.09
2022-10-09T03:12:38.467Z,99477.69
2022-10-09T03:15:07.217Z,99472.53
2022-10-09T03:17:34.883Z,99483.72
2022-10-09T03:20:04.127Z,99488.16
2022-10-09T03:22:31.912Z,99481.34
2022-10-09T03:24:59.657Z,99481.72
2022-10-09T03:27:27.363Z,99485.63
2022-10-09T03:29:54.989Z,99484.81
2022-10-09T03:32:22.690Z,99482.13
2022-10-09T03:34:50.373Z,99487.16
2022-10-09T03:37:19.523Z,99490.56
2022-10-09T03:39:47.152Z,99482.66
2022-10-09T03:42:14.819Z,99486.75
2022-10-09T03:44:42.521Z,99482.78
2022-10-09T03:47:10.319Z,99485.81
2022-10-09T03:49:38.077Z,99471.94
2022-10-09T03:52:05.797Z,99484.09
2022-10-09T03:54:34.890Z,99489.06
2022-10-09T03:57:02.695Z,99478.44
2022-10-09T03:59:30.379Z,99483.97
2022-10-09T04:01:58.097Z,99487.31
2022-10-09T04:04:25.745Z,99489.06
2022-10-09T04:06:53.455Z,99483.00
2022-10-09T04:09:21.135Z,99480.09
2022-10-09T04:11:50.646Z,99484.91
2022-10-09T04:14:18.286Z,99483.47
2022-10-09T04:16:46.020Z,99481.19
2022-10-09T04:19:13.713Z,99493.94
2022-10-09T04:21:41.361Z,99496.19
2022-10-09T04:24:09.261Z,99493.63
2022-10-09T04:26:37.174Z,99488.94
2022-10-09T04:29:06.226Z,99489.72
2022-10-09T04:31:34.134Z,99486.38
2022-10-09T04:34:01.859Z,99488.28
2022-10-09T04:36:29.526Z,99493.47
2022-10-09T04:38:57.212Z,99491.34
2022-10-09T04:41:24.967Z,99497.44
2022-10-09T04:43:55.567Z,99489.72
2022-10-09T04:46:24.953Z,99491.31
2022-10-09T04:48:52.601Z,99480.53
2022-10-09T04:51:20.380Z,99483.81
2022-10-09T04:53:48.588Z,99478.44
2022-10-09T04:56:18.107Z,99473.94
2022-10-09T04:58:47.218Z,99483.47
2022-10-09T05:01:17.968Z,99484.22
2022-10-09T05:03:47.045Z,99477.72
2022-10-09T05:06:15.521Z,99473.81
2022-10-09T05:08:43.992Z,99472.25
2022-10-09T05:11:14.266Z,99472.06
2022-10-09T05:13:44.827Z,99468.25
2022-10-09T05:16:14.789Z,99475.69
2022-10-09T05:18:43.885Z,99479.75
2022-10-09T05:21:13.121Z,99482.00
2022-10-09T05:23:41.225Z,99471.66
2022-10-09T05:26:12.644Z,99470.72
2022-10-09T05:28:40.443Z,99483.13
2022-10-09T05:31:09.515Z,99476.69
2022-10-09T05:33:37.613Z,99476.53
2022-10-09T05:36:06.415Z,99473.75
2022-10-09T05:38:35.666Z,99477.19
2022-10-09T05:41:06.202Z,99477.31
2022-10-09T05:43:36.384Z,99480.56
2022-10-09T05:46:09.331Z,99476.28
2022-10-09T05:48:37.638Z,99470.47
2022-10-09T05:51:14.187Z,99474.84
2022-10-09T05:53:44.977Z,99483.38
2022-10-09T05:56:14.258Z,99485.34
2022-10-09T05:58:42.104Z,99484.31
2022-10-09T06:01:10.030Z,99474.94
2022-10-09T06:03:38.549Z,99475.09
2022-10-09T06:06:07.703Z,99473.59
2022-10-09T06:08:36.791Z,99470.63
2022-10-09T06:11:13.862Z,99488.88
2022-10-09T06:13:41.882Z,99475.66
2022-10-09T06:16:11.482Z,99479.22
2022-10-09T06:18:39.353Z,99485.34
2022-10-09T06:21:07.489Z,99488.56
2022-10-09T06:23:35.723Z,99479.59
2022-10-09T06:26:05.303Z,99480.72
2022-10-09T06:28:35.687Z,99487.47
2022-10-09T06:31:04.310Z,99485.88
2022-10-09T06:33:32.917Z,99490.56
2022-10-09T06:36:09.738Z,99487.81
2022-10-09T06:38:38.612Z,99491.53
2022-10-09T06:41:08.427Z,99483.47
2022-10-09T06:43:37.537Z,99481.38
2022-10-09T06:46:07.927Z,99479.03
2022-10-09T06:48:37.567Z,99478.31
2022-10-09T06:51:08.412Z,99489.66
2022-10-09T06:53:36.678Z,99496.31
2022-10-09T06:56:05.061Z,99497.56
2022-10-09T06:58:33.052Z,99503.56
2022-10-09T07:01:07.517Z,99497.94
2022-10-09T07:03:35.360Z,99495.84
2022-10-09T07:06:10.802Z,99493.16
2022-10-09T07:08:39.448Z,99500.44
2022-10-09T07:11:12.143Z,99501.25
2022-10-09T07:13:40.465Z,99496.19
2022-10-09T07:16:09.987Z,99505.47
2022-10-09T07:18:38.441Z,99502.97
2022-10-09T07:21:07.972Z,99503.28
2022-10-09T07:23:36.705Z,99510.22
2022-10-09T07:26:11.307Z,99506.25
2022-10-09T07:28:39.596Z,99505.72
2022-10-09T07:31:09.091Z,99502.06
2022-10-09T07:33:37.178Z,99504.81
2022-10-09T07:36:06.426Z,99502.34
2022-10-09T07:38:34.459Z,99509.16
2022-10-09T07:41:03.165Z,99500.53
2022-10-09T07:43:32.068Z,99508.56
2022-10-09T07:46:00.763Z,99502.03
2022-10-09T07:48:29.908Z,99499.00
2022-10-09T07:50:57.902Z,99493.22
2022-10-09T07:53:25.644Z,99499.84
2022-10-09T07:55:53.383Z,99494.63
2022-10-09T07:58:21.141Z,99485.97
2022-10-09T08:00:48.871Z,99491.88
2022-10-09T08:03:16.584Z,99498.34
2022-10-09T08:05:45.693Z,99487.41
2022-10-09T08:08:13.410Z,99491.94
2022-10-09T08:10:41.052Z,99488.53
2022-10-09T08:13:08.862Z,99482.47
2022-10-09T08:15:41.459Z,99482.56
2022-10-09T08:18:09.252Z,99475.38
2022-10-09T08:20:36.982Z,99479.53
2022-10-09T08:23:06.577Z,99475.91
2022-10-09T08:25:35.932Z,99479.44
2022-10-09T08:28:04.105Z,99478.47
2022-10-09T08:30:32.068Z,99474.28
2022-10-09T08:32:59.806Z,99478.84
2022-10-09T08:35:30.005Z,99478.75
2022-10-09T08:38:01.514Z,99477.81
2022-10-09T08:40:35.158Z,99466.13
2022-10-09T08:43:06.107Z,99464.84
2022-10-09T08:45:34.647Z,99462.06
2022-10-09T08:48:05.468Z,99462.63
2022-10-09T08:50:36.138Z,99471.66
2022-10-09T08:53:09.339Z,99468.19
2022-10-09T08:55:46.249Z,99464.81
2022-10-09T08:58:17.200Z,99462.50
2022-10-09T09:00:50.933Z,99463.44
2022-10-09T09:03:45.609Z,99457.09
2022-10-09T09:06:15.894Z,99454.94
2022-10-09T09:08:52.350Z,99450.97
2022-10-09T09:11:32.552Z,99442.69
2022-10-09T09:14:11.708Z,99441.59
2022-10-09T09:16:45.869Z,99435.72
2022-10-09T09:19:41.756Z,99444.13
2022-10-09T09:22:12.712Z,99438.09
2022-10-09T09:24:45.194Z,99429.78
2022-10-09T09:27:19.201Z,99436.59
2022-10-09T09:29:49.475Z,99428.38
2022-10-09T09:32:21.429Z,99425.53
2022-10-09T09:34:49.337Z,99421.56
2022-10-09T09:37:18.097Z,99423.66
2022-10-09T09:42:35.039Z,99420.47
2022-10-09T09:45:06.004Z,99416.38
2022-10-09T09:47:37.215Z,99404.81
2022-10-09T09:50:06.505Z,99408.91
2022-10-09T09:52:40.678Z,99399.75
2022-10-09T09:55:08.973Z,99396.00
2022-10-09T09:57:44.273Z,99391.25
2022-10-09T10:00:23.464Z,99390.91
2022-10-09T10:02:51.855Z,99382.75
2022-10-09T10:05:25.771Z,99383.97
2022-10-09T10:07:54.050Z,99377.53
2022-10-09T10:10:25.880Z,99373.84
2022-10-09T10:12:58.365Z,99363.94
2022-10-09T10:15:28.633Z,99359.69
2022-10-09T10:18:00.186Z,99362.66
2022-10-09T10:20:29.473Z,99350.63
2022-10-09T10:22:59.896Z,99357.28
2022-10-09T10:25:32.664Z,99351.78
2022-10-09T10:28:06.891Z,99339.88
2022-10-09T10:30:36.421Z,99343.00
2022-10-09T10:33:12.329Z,99337.44
2022-10-09T10:35:42.938Z,99319.88
2022-10-09T10:38:14.896Z,99324.09
2022-10-09T10:40:47.919Z,99323.34
2022-10-09T10:43:30.839Z,99316.66
2022-10-09T10:46:03.547Z,99316.22
2022-10-09T10:48:34.865Z,99311.31
2022-10-09T10:51:18.038Z,99307.66
2022-10-09T10:54:02.462Z,99299.34
2022-10-09T10:56:33.875Z,99298.28
2022-10-09T10:59:21.520Z,99307.72
2022-10-09T11:01:55.815Z,99304.59
2022-10-09T11:04:37.768Z,99301.25
2022-10-09T11:07:13.708Z,99296.00
2022-10-09T11:09:52.488Z,99291.47
2022-10-09T11:12:46.712Z,99290.78
2022-10-09T11:15:25.776Z,99284.66
2022-10-09T11:18:00.120Z,99278.63
2022-10-09T11:20:55.276Z,99283.69
2022-10-09T11:23:30.754Z,99267.09
2022-10-09T11:26:05.283Z,99274.00
2022-10-09T11:28:39.619Z,99269.13
2022-10-09T11:31:14.641Z,99266.03
2022-10-09T11:33:46.571Z,99258.13
2022-10-09T11:36:19.477Z,99260.69
2022-10-09T11:38:52.731Z,99252.06
2022-10-09T11:41:21.181Z,99244.59
2022-10-09T11:44:00.369Z,99241.66
2022-10-09T11:46:40.516Z,99228.53
2022-10-09T11:49:18.306Z,99227.47
2022-10-09T11:51:51.497Z,99234.03
2022-10-09T11:54:22.451Z,99217.78
2022-10-09T11:56:55.702Z,99220.66
2022-10-09T11:59:25.982Z,99211.97
2022-10-09T12:01:55.227Z,99207.72
2022-10-09T12:04:43.596Z,99197.28
2022-10-09T12:07:25.948Z,99201.63
2022-10-09T12:09:59.836Z,99195.94
2022-10-09T12:12:27.591Z,99190.16
2022-10-09T12:14:55.470Z,99188.97
2022-10-09T12:17:35.605Z,99175.13
2022-10-09T12:20:08.491Z,99177.00
2022-10-09T12:22:41.455Z,99173.13
2022-10-09T12:25:18.341Z,99169.25
2022-10-09T12:27:47.245Z,99158.72
2022-10-09T12:30:24.513Z,99153.50
2022-10-09T12:32:59.710Z,99155.44
2022-10-09T12:35:36.631Z,99153.56
2022-10-09T12:38:16.769Z,99149.97
2022-10-09T12:40:48.794Z,99148.09
2022-10-09T12:43:19.202Z,99135.78
2022-10-09T12:45:49.875Z,99140.16
2022-10-09T12:48:22.192Z,99137.22
2022-10-09T12:50:50.419Z,99134.22
2022-10-09T12:53:19.879Z,99127.19
2022-10-09T12:55:50.324Z,99132.00
2022-10-09T12:58:21.383Z,99127.13
2022-10-09T13:00:51.998Z,99113.34
2022-10-09T13:03:24.785Z,99121.28
2022-10-09T13:05:53.246Z,99124.34
2022-10-09T13:08:26.925Z,99118.41
2022-10-09T13:10:55.433Z,99104.88
2022-10-09T13:13:27.083Z,99108.34
2022-10-09T13:16:02.219Z,99110.13
2022-10-09T13:18:31.345Z,99101.81
2022-10-09T13:21:00.664Z,99097.63
2022-10-09T13:23:33.123Z,99096.28
2022-10-09T13:26:03.631Z,99096.69
2022-10-09T13:28:31.696Z,99086.38
2022-10-09T13:31:07.490Z,99088.16
2022-10-09T13:33:36.662Z,99091.78
2022-10-09T13:36:04.579Z,99089.25
2022-10-09T13:38:34.926Z,99085.72
2022-10-09T13:41:03.178Z,99089.84
2022-10-09T13:43:33.370Z,99077.72
2022-10-09T13:46:01.202Z,99077.56
2022-10-09T13:48:31.158Z,99083.16
2022-10-09T13:51:00.258Z,99073.22
2022-10-09T13:53:28.491Z,99064.22
2022-10-09T13:56:00.718Z,99065.44
2022-10-09T13:58:29.565Z,99059.97
2022-10-09T14:00:58.049Z,99056.38
2022-10-09T14:03:25.852Z,99057.97
2022-10-09T14:06:00.446Z,99054.19
2022-10-09T14:08:28.290Z,99049.56
2022-10-09T14:10:56.085Z,99052.13
2022-10-09T14:13:23.752Z,99042.78
2022-10-09T14:15:53.074Z,99041.41
2022-10-09T14:18:21.152Z,99024.63
2022-10-09T14:20:48.984Z,99021.78
2022-10-09T14:23:18.037Z,99021.91
2022-10-09T14:25:45.700Z,99023.47
2022-10-09T14:28:13.436Z,99017.09
2022-10-09T14:30:41.568Z,99005.72
2022-10-09T14:33:09.397Z,99004.88
2022-10-09T14:35:37.221Z,99007.72
2022-10-09T14:38:04.957Z,99005.59
2022-10-09T14:40:33.976Z,99004.22
2022-10-09T14:43:01.683Z,99007.22
2022-10-09T14:45:29.834Z,99006.59
2022-10-09T14:47:57.961Z,98999.28
2022-10-09T14:50:25.649Z,98998.81
2022-10-09T14:52:53.314Z,98999.88
2022-10-09T14:55:20.995Z,98999.47
2022-10-09T14:57:50.074Z,98999.28
2022-10-09T15:00:18.048Z,98996.66
2022-10-09T15:02:45.862Z,98986.53
2022-10-09T15:05:13.579Z,98984.75
2022-10-09T15:07:41.852Z,98985.13
2022-10-09T15:10:12.448Z,98986.31
2022-10-09T15:12:40.914Z,98981.88
2022-10-09T15:15:10.925Z,98983.56
2022-10-09T15:17:38.808Z,98978.72
2022-10-09T15:20:07.329Z,98978.47
2022-10-09T15:22:35.078Z,98971.84
2022-10-09T15:25:02.785Z,98968.06
2022-10-09T15:27:30.651Z,98971.94
2022-10-09T15:29:58.377Z,98966.13
2022-10-09T15:32:27.415Z,98956.22
2022-10-09T15:34:55.109Z,98957.94
2022-10-09T15:37:22.784Z,98957.16
2022-10-09T15:39:50.478Z,98964.38
2022-10-09T15:42:18.159Z,98956.09
2022-10-09T15:44:46.017Z,98947.94
2022-10-09T15:47:19.718Z,98950.03
2022-10-09T15:49:53.215Z,98948.69
2022-10-09T15:52:21.177Z,98951.84
2022-10-09T15:54:48.907Z,98941.84
2022-10-09T15:57:16.709Z,98946.06
2022-10-09T15:59:44.538Z,98945.75
2022-10-09T16:02:12.265Z,98935.84
2022-10-09T16:04:40.103Z,98935.84
2022-10-09T16:07:09.170Z,98927.78
2022-10-09T16:09:38.050Z,98920.59
2022-10-09T16:12:05.787Z,98932.63
2022-10-09T16:14:33.828Z,98924.75
2022-10-09T16:17:06.552Z,98936.41
2022-10-09T16:19:36.799Z,98933.25
2022-10-09T16:22:05.138Z,98930.88
2022-10-09T16:24:34.187Z,98921.72
2022-10-09T16:27:01.832Z,98922.09
2022-10-09T16:29:30.849Z,98914.94
2022-10-09T16:31:58.583Z,98922.50
2022-10-09T16:34:26.423Z,98924.06
2022-10-09T16:36:54.112Z,98923.25
2022-10-09T16:39:23.584Z,98931.94
2022-10-09T16:41:52.730Z,98925.53
2022-10-09T16:44:20.457Z,98923.59
2022-10-09T16:46:51.043Z,98926.28
2022-10-09T16:49:21.437Z,98930.13
2022-10-09T16:51:52.135Z,98928.41
2022-10-09T16:54:19.967Z,98935.13
2022-10-09T16:56:47.692Z,98938.31
2022-10-09T16:59:16.783Z,98941.81
2022-10-09T17:01:46.381Z,98937.38
2022-10-09T17:04:14.772Z,98937.00
2022-10-09T17:06:43.743Z,98938.50
2022-10-09T17:09:14.149Z,98940.13
2022-10-09T17:11:43.332Z,98938.41
2022-10-09T17:14:11.702Z,98942.50
2022-10-09T17:16:42.814Z,98944.59
2022-10-09T17:19:10.556Z,98948.78
2022-10-09T17:21:38.297Z,98955.47
2022-10-09T17:24:07.537Z,98945.94
2022-10-09T17:26:36.150Z,98951.72
2022-10-09T17:29:04.593Z,98957.66
2022-10-09T17:31:32.657Z,98948.44
2022-10-09T17:34:03.600Z,98955.22
2022-10-09T17:36:33.534Z,98954.53
2022-10-09T17:39:01.302Z,98943.94
2022-10-09T17:41:29.660Z,98948.44
2022-10-09T17:43:58.296Z,98944.84
2022-10-09T17:46:27.805Z,98947.53
2022-10-09T17:48:56.798Z,98946.44
2022-10-09T17:51:28.674Z,98949.94
2022-10-09T17:56:32.479Z,98944.00
2022-10-09T17:59:01.061Z,98943.06
2022-10-09T18:01:29.096Z,98938.59
2022-10-09T18:04:00.347Z,98940.59
2022-10-09T18:06:32.357Z,98943.78
2022-10-09T18:09:00.410Z,98933.13
2022-10-09T18:11:29.867Z,98939.50
2022-10-09T18:13:57.863Z,98941.88
2022-10-09T18:16:35.189Z,98932.78
2022-10-09T18:19:04.521Z,98939.22
2022-10-09T18:21:36.523Z,98933.31
2022-10-09T18:24:04.749Z,98933.41
2022-10-09T18:26:32.669Z,98932.38
2022-10-09T18:29:01.155Z,98931.53
2022-10-09T18:31:29.219Z,98928.94
2022-10-09T18:33:58.651Z,98928.72
2022-10-09T18:36:31.340Z,98927.25
2022-10-09T18:39:03.550Z,98926.22
2022-10-09T18:41:31.531Z,98928.59
2022-10-09T18:44:00.978Z,98925.13
2022-10-09T18:46:32.779Z,98917.00
2022-10-09T18:49:00.919Z,98923.28
2022-10-09T18:51:29.769Z,98917.94
2022-10-09T18:54:06.628Z,98910.06
2022-10-09T18:56:36.356Z,98918.94
2022-10-09T18:59:07.960Z,98916.16
2022-10-09T19:01:35.877Z,98923.22
2022-10-09T19:04:04.328Z,98918.47
2022-10-09T19:06:32.194Z,98912.25
2022-10-09T19:09:00.795Z,98908.69
2022-10-09T19:11:30.868Z,98905.25
2022-10-09T19:14:00.391Z,98909.97
2022-10-09T19:16:28.288Z,98911.78
2022-10-09T19:18:56.482Z,98911.25
2022-10-09T19:21:24.584Z,98908.03
2022-10-09T19:23:54.007Z,98914.75
2022-10-09T19:26:22.714Z,98906.06
2022-10-09T19:28:51.914Z,98911.34
2022-10-09T19:31:19.681Z,98906.88
2022-10-09T19:33:47.359Z,98908.06
2022-10-09T19:36:15.806Z,98903.38
2022-10-09T19:38:43.641Z,98904.66
2022-10-09T19:41:13.556Z,98913.13
2022-10-09T19:43:41.302Z,98909.88
2022-10-09T19:46:13.901Z,98901.47
2022-10-09T19:48:41.795Z,98905.66
2022-10-09T19:51:12.514Z,98907.06
2022-10-09T19:53:40.400Z,98905.44
2022-10-09T19:56:11.150Z,98908.84
2022-10-09T19:58:40.765Z,98909.75
2022-10-09T20:01:10.171Z,98916.00
2022-10-09T20:03:38.217Z,98907.00
2022-10-09T20:06:08.452Z,98914.56
2022-10-09T20:08:36.472Z,98908.84
2022-10-09T20:11:05.653Z,98915.38
2022-10-09T20:13:34.175Z,98911.34
2022-10-09T20:16:03.321Z,98909.94
2022-10-09T20:18:32.593Z,98910.47
2022-10-09T20:21:00.642Z,98911.41
2022-10-09T20:23:28.339Z,98900.66
2022-10-09T20:26:00.403Z,98902.00
2022-10-09T20:28:28.206Z,98904.53
2022-10-09T20:30:59.076Z,98898.59
2022-10-09T20:33:27.432Z,98898.50
2022-10-09T20:35:56.484Z,98900.06
2022-10-09T20:38:25.893Z,98901.84
2022-10-09T20:40:53.950Z,98892.81
2022-10-09T20:43:21.689Z,98898.59
2022-10-09T20:45:49.447Z,98890.97
2022-10-09T20:48:17.527Z,98889.13
2022-10-09T20:50:45.204Z,98886.72
2022-10-09T20:53:14.293Z,98891.28
2022-10-09T20:55:41.978Z,98891.44
2022-10-09T20:58:09.679Z,98881.16
2022-10-09T21:00:42.780Z,98882.78
2022-10-09T21:03:12.589Z,98889.56
2022-10-09T21:05:44.180Z,98882.84
2022-10-09T21:08:12.005Z,98884.75
2022-10-09T21:10:45.402Z,98884.16
2022-10-09T21:13:13.781Z,98881.63
2022-10-09T21:15:43.766Z,98888.47
2022-10-09T21:18:11.894Z,98884.50
2022-10-09T21:20:40.658Z,98882.28
2022-10-09T21:23:09.739Z,98881.63
2022-10-09T21:25:38.379Z,98878.91
2022-10-09T21:28:07.438Z,98876.09
2022-10-09T21:30:41.553Z,98878.22
2022-10-09T21:33:10.095Z,98883.75
2022-10-09T21:35:40.399Z,98884.47
2022-10-09T21:38:12.106Z,98874.00
2022-10-09T21:40:39.848Z,98878.78
2022-10-09T21:43:09.024Z,98875.34
2022-10-09T21:45:37.174Z,98863.03
2022-10-09T21:48:05.248Z,98859.66
2022-10-09T21:50:33.828Z,98869.13
2022-10-09T21:53:01.577Z,98870.16
2022-10-09T21:55:29.329Z,98864.63
2022-10-09T21:57:56.993Z,98864.94
2022-10-09T22:00:26.217Z,98869.72
2022-10-09T22:02:53.979Z,98867.75
2022-10-09T22:05:21.631Z,98871.41
2022-10-09T22:07:49.342Z,98866.91
2022-10-09T22:10:17.135Z,98872.09
2022-10-09T22:12:44.850Z,98880.91
2022-10-09T22:15:12.496Z,98870.50
2022-10-09T22:17:41.524Z,98872.41
2022-10-09T22:20:09.912Z,98871.06
2022-10-09T22:22:37.653Z,98876.69
2022-10-09T22:25:06.235Z,98868.25
2022-10-09T22:27:33.915Z,98866.84
2022-10-09T22:30:01.577Z,98871.94
2022-10-09T22:32:29.283Z,98869.31
2022-10-09T22:34:58.267Z,98863.78
2022-10-09T22:37:25.953Z,98865.19
2022-10-09T22:39:53.628Z,98861.91
2022-10-09T22:42:21.484Z,98858.72
2022-10-09T22:44:49.161Z,98856.75
2022-10-09T22:47:16.816Z,98856.75
2022-10-09T22:49:44.617Z,98847.69
2022-10-09T22:52:13.664Z,98844.44
2022-10-09T22:54:41.364Z,98847.44
2022-10-09T22:57:09.058Z,98851.72
2022-10-09T22:59:36.741Z,98850.38
2022-10-09T23:02:04.625Z,98844.31
2022-10-09T23:04:32.310Z,98846.44
2022-10-09T23:07:01.060Z,98842.09
2022-10-09T23:09:32.224Z,98834.44
2022-10-09T23:12:00.894Z,98836.72
2022-10-09T23:14:28.773Z,98834.78
2022-10-09T23:16:56.463Z,98843.06
2022-10-09T23:19:24.133Z,98838.53
2022-10-09T23:21:51.792Z,98837.84
2022-10-09T23:24:19.444Z,98833.06
2022-10-09T23:26:52.082Z,98840.13
2022-10-09T23:29:20.683Z,98831.19
2022-10-09T23:31:50.040Z,98832.72
2022-10-09T23:34:17.742Z,98835.72
2022-10-09T23:36:45.438Z,98834.81
2022-10-09T23:39:13.780Z,98830.88
2022-10-09T23:41:41.487Z,98836.72
2022-10-09T23:44:10.536Z,98829.38
2022-10-09T23:46:38.467Z,98835.06
2022-10-09T23:49:06.456Z,98830.88
2022-10-09T23:51:34.244Z,98832.00
2022-10-09T23:54:02.094Z,98831.63
2022-10-09T23:56:32.222Z,98828.34
2022-10-09T23:59:02.132Z,98823.81
